createdAt,value
2023-05-02T00:02:19.919Z,97674.00
2023-05-02T00:04:47.121Z,97677.00
2023-05-02T00:07:14.164Z,97674.00
2023-05-02T00:09:41.492Z,97671.00
2023-05-02T00:12:08.596Z,97677.00
2023-05-02T00:14:35.645Z,97678.00
2023-05-02T00:17:02.903Z,97682.00
2023-05-02T00:19:30.090Z,97677.00
2023-05-02T00:21:57.200Z,97677.00
2023-05-02T00:24:24.297Z,97682.00
2023-05-02T00:26:51.369Z,97681.00
2023-05-02T00:29:18.522Z,97686.00
2023-05-02T00:31:45.628Z,97687.00
2023-05-02T00:34:12.697Z,97677.00
2023-05-02T00:36:40.184Z,97674.00
2023-05-02T00:39:07.244Z,97676.00
2023-05-02T00:41:34.344Z,97674.00
2023-05-02T00:44:01.413Z,97673.00
2023-05-02T00:46:28.957Z,97672.00
2023-05-02T00:48:56.037Z,97670.00
2023-05-02T00:51:23.434Z,97671.00
2023-05-02T00:53:51.181Z,97674.00
2023-05-02T00:56:18.336Z,97675.00
2023-05-02T00:58:47.336Z,97677.00
2023-05-02T01:01:29.489Z,97677.00
2023-05-02T01:04:22.609Z,97677.00
2023-05-02T01:07:43.971Z,97680.00
2023-05-02T01:10:39.129Z,97683.00
2023-05-02T01:13:24.730Z,97686.00
2023-05-02T01:15:53.868Z,97679.00
2023-05-02T01:18:24.847Z,97674.00
2023-05-02T01:21:01.945Z,97680.00
2023-05-02T01:24:01.459Z,97679.00
2023-05-02T01:26:41.141Z,97681.00
2023-05-02T01:29:10.147Z,97689.00
2023-05-02T01:31:44.538Z,97690.00
2023-05-02T01:34:12.615Z,97686.00
2023-05-02T01:36:44.376Z,97694.00
2023-05-02T01:39:20.861Z,97701.00
2023-05-02T01:41:52.434Z,97691.00
2023-05-02T01:44:23.156Z,97691.00
2023-05-02T01:46:52.186Z,97687.00
2023-05-02T01:49:21.210Z,97689.00
2023-05-02T01:51:50.944Z,97688.00
2023-05-02T01:54:21.386Z,97694.00
2023-05-02T01:56:49.399Z,97689.00
2023-05-02T02:02:02.924Z,97692.00
2023-05-02T02:04:31.075Z,97696.00
2023-05-02T02:07:09.102Z,97697.00
2023-05-02T02:09:36.332Z,97698.00
2023-05-02T02:12:11.273Z,97698.00
2023-05-02T02:14:43.675Z,97696.00
2023-05-02T02:17:26.074Z,97694.00
2023-05-02T02:19:56.262Z,97697.00
2023-05-02T02:22:27.009Z,97697.00
2023-05-02T02:24:54.741Z,97704.00
2023-05-02T02:27:21.834Z,97704.00
2023-05-02T02:29:49.227Z,97706.00
2023-05-02T02:32:16.354Z,97706.00
2023-05-02T02:34:43.550Z,97700.00
2023-05-02T02:37:26.658Z,97704.00
2023-05-02T02:40:09.252Z,97709.00
2023-05-02T02:43:02.443Z,97704.00
2023-05-02T02:46:04.422Z,97713.00
2023-05-02T02:48:43.759Z,97714.00
2023-05-02T02:51:31.984Z,97712.00
2023-05-02T02:54:23.080Z,97709.00
2023-05-02T02:57:08.070Z,97716.00
2023-05-02T02:59:42.545Z,97716.00
2023-05-02T03:02:13.557Z,97715.00
2023-05-02T03:04:43.805Z,97713.00
2023-05-02T03:07:10.899Z,97714.00
2023-05-02T03:09:45.952Z,97717.00
2023-05-02T03:12:14.109Z,97718.00
2023-05-02T03:14:41.868Z,97718.00
2023-05-02T03:17:08.989Z,97725.00
2023-05-02T03:19:36.321Z,97726.00
2023-05-02T03:22:04.386Z,97729.00
2023-05-02T03:24:31.574Z,97722.00
2023-05-02T03:26:59.650Z,97732.00
2023-05-02T03:29:28.703Z,97731.00
2023-05-02T03:31:56.011Z,97733.00
2023-05-02T03:34:23.243Z,97732.00
2023-05-02T03:36:50.384Z,97723.00
2023-05-02T03:39:17.479Z,97735.00
2023-05-02T03:41:44.766Z,97738.00
2023-05-02T03:44:11.852Z,97729.00
2023-05-02T03:46:38.970Z,97732.00
2023-05-02T03:49:06.222Z,97737.00
2023-05-02T03:51:33.979Z,97745.00
2023-05-02T03:54:02.833Z,97748.00
2023-05-02T03:56:30.027Z,97745.00
2023-05-02T03:58:57.080Z,97749.00
2023-05-02T04:01:24.177Z,97748.00
2023-05-02T04:03:53.547Z,97754.00
2023-05-02T04:06:20.890Z,97752.00
2023-05-02T04:08:47.963Z,97751.00
2023-05-02T04:11:15.809Z,97766.00
2023-05-02T04:13:43.001Z,97769.00
2023-05-02T04:16:10.180Z,97760.00
2023-05-02T04:18:37.293Z,97767.00
2023-05-02T04:21:04.488Z,97770.00
2023-05-02T04:23:31.545Z,97774.00
2023-05-02T04:25:58.615Z,97772.00
2023-05-02T04:28:25.797Z,97771.00
2023-05-02T04:30:53.236Z,97775.00
2023-05-02T04:33:20.701Z,97787.00
2023-05-02T04:35:47.871Z,97793.00
2023-05-02T04:38:15.117Z,97790.00
2023-05-02T04:40:42.517Z,97798.00
2023-05-02T04:43:09.633Z,97789.00
2023-05-02T04:45:37.244Z,97806.00
2023-05-02T04:48:05.258Z,97799.00
2023-05-02T04:50:32.575Z,97799.00
2023-05-02T04:52:59.690Z,97813.00
2023-05-02T04:55:26.853Z,97817.00
2023-05-02T04:57:53.920Z,97813.00
2023-05-02T05:00:21.964Z,97821.00
2023-05-02T05:02:49.173Z,97828.00
2023-05-02T05:05:16.586Z,97826.00
2023-05-02T05:07:43.759Z,97829.00
2023-05-02T05:10:11.629Z,97832.00
2023-05-02T05:12:38.819Z,97841.00
2023-05-02T05:15:07.359Z,97846.00
2023-05-02T05:17:34.727Z,97844.00
2023-05-02T05:20:02.289Z,97850.00
2023-05-02T05:22:29.678Z,97858.00
2023-05-02T05:24:56.731Z,97854.00
2023-05-02T05:27:23.842Z,97861.00
2023-05-02T05:29:50.898Z,97860.00
2023-05-02T05:32:18.459Z,97862.00
2023-05-02T05:34:45.584Z,97867.00
2023-05-02T05:37:12.745Z,97869.00
2023-05-02T05:39:39.917Z,97879.00
2023-05-02T05:42:09.814Z,97884.00
2023-05-02T05:44:37.171Z,97889.00
2023-05-02T05:47:04.792Z,97890.00
2023-05-02T05:49:32.727Z,97885.00
2023-05-02T05:52:01.057Z,97889.00
2023-05-02T05:54:28.462Z,97887.00
2023-05-02T05:56:55.699Z,97899.00
2023-05-02T05:59:22.832Z,97897.00
2023-05-02T06:01:49.944Z,97899.00
2023-05-02T06:04:17.085Z,97905.00
2023-05-02T06:06:44.244Z,97911.00
2023-05-02T06:09:11.946Z,97913.00
2023-05-02T06:11:39.016Z,97910.00
2023-05-02T06:14:06.322Z,97915.00
2023-05-02T06:16:33.411Z,97921.00
2023-05-02T06:19:00.570Z,97917.00
2023-05-02T06:21:27.669Z,97923.00
2023-05-02T06:23:54.785Z,97916.00
2023-05-02T06:26:22.484Z,97919.00
2023-05-02T06:28:49.591Z,97932.00
2023-05-02T06:31:17.146Z,97925.00
2023-05-02T06:33:44.368Z,97925.00
2023-05-02T06:36:11.463Z,97937.00
2023-05-02T06:38:38.562Z,97930.00
2023-05-02T06:41:05.742Z,97934.00
2023-05-02T06:43:33.935Z,97935.00
2023-05-02T06:46:01.747Z,97939.00
2023-05-02T06:48:28.926Z,97937.00
2023-05-02T06:50:55.996Z,97943.00
2023-05-02T06:53:23.600Z,97941.00
2023-05-02T06:55:51.012Z,97934.00
2023-05-02T06:58:18.238Z,97940.00
2023-05-02T07:00:45.696Z,97941.00
2023-05-02T07:03:12.905Z,97946.00
2023-05-02T07:05:40.163Z,97941.00
2023-05-02T07:08:07.708Z,97942.00
2023-05-02T07:10:34.991Z,97939.00
2023-05-02T07:13:02.174Z,97941.00
2023-05-02T07:15:29.321Z,97947.00
2023-05-02T07:17:56.488Z,97947.00
2023-05-02T07:20:23.823Z,97942.00
2023-05-02T07:22:51.479Z,97938.00
2023-05-02T07:25:18.708Z,97936.00
2023-05-02T07:27:46.077Z,97938.00
2023-05-02T07:30:13.689Z,97935.00
2023-05-02T07:32:40.824Z,97938.00
2023-05-02T07:35:08.825Z,97948.00
2023-05-02T07:37:36.575Z,97944.00
2023-05-02T07:40:04.727Z,97947.00
2023-05-02T07:42:32.577Z,97939.00
2023-05-02T07:45:00.224Z,97945.00
2023-05-02T07:47:27.587Z,97960.00
2023-05-02T07:49:57.254Z,97957.00
2023-05-02T07:52:24.730Z,97961.00
2023-05-02T07:54:52.157Z,97965.00
2023-05-02T07:57:19.571Z,97965.00
2023-05-02T07:59:46.974Z,97969.00
2023-05-02T08:02:14.424Z,97975.00
2023-05-02T08:04:41.920Z,97978.00
2023-05-02T08:07:09.154Z,97972.00
2023-05-02T08:09:36.360Z,97978.00
2023-05-02T08:12:03.611Z,97978.00
2023-05-02T08:14:31.685Z,97985.00
2023-05-02T08:17:00.430Z,97980.00
2023-05-02T08:19:28.181Z,97983.00
2023-05-02T08:21:55.644Z,97983.00
2023-05-02T08:24:23.212Z,97980.00
2023-05-02T08:26:50.882Z,97977.00
2023-05-02T08:29:17.999Z,97982.00
2023-05-02T08:31:45.605Z,97982.00
2023-05-02T08:34:12.845Z,97989.00
2023-05-02T08:36:39.959Z,97981.00
2023-05-02T08:39:09.649Z,97986.00
2023-05-02T08:41:37.905Z,97982.00
2023-05-02T08:44:07.763Z,97991.00
2023-05-02T08:46:37.456Z,97987.00
2023-05-02T08:49:06.772Z,97989.00
2023-05-02T08:51:35.914Z,97993.00
2023-05-02T08:54:04.005Z,97993.00
2023-05-02T08:56:31.258Z,97995.00
2023-05-02T08:58:58.385Z,98003.00
2023-05-02T09:01:31.262Z,98004.00
2023-05-02T09:03:59.405Z,98003.00
2023-05-02T09:06:28.321Z,98001.00
2023-05-02T09:08:59.412Z,98003.00
2023-05-02T09:11:26.603Z,98004.00
2023-05-02T09:13:53.885Z,98011.00
2023-05-02T09:16:29.160Z,98013.00
2023-05-02T09:18:58.708Z,98012.00
2023-05-02T09:21:43.393Z,98021.00
2023-05-02T09:24:22.034Z,98021.00
2023-05-02T09:27:15.586Z,98013.00
2023-05-02T09:29:45.984Z,98014.00
2023-05-02T09:32:13.330Z,98025.00
2023-05-02T09:34:40.420Z,98021.00
2023-05-02T09:37:07.558Z,98024.00
2023-05-02T09:39:34.698Z,98030.00
2023-05-02T09:42:03.574Z,98021.00
2023-05-02T09:44:38.114Z,98029.00
2023-05-02T09:47:06.960Z,98026.00
2023-05-02T09:49:44.961Z,98033.00
2023-05-02T09:52:17.877Z,98033.00
2023-05-02T09:54:47.020Z,98030.00
2023-05-02T09:57:14.525Z,98032.00
2023-05-02T09:59:42.226Z,98035.00
2023-05-02T10:02:11.587Z,98027.00
2023-05-02T10:04:39.985Z,98041.00
2023-05-02T10:07:10.721Z,98044.00
2023-05-02T10:09:45.761Z,98043.00
2023-05-02T10:12:17.064Z,98039.00
2023-05-02T10:14:53.514Z,98035.00
2023-05-02T10:17:34.269Z,98032.00
2023-05-02T10:20:05.620Z,98040.00
2023-05-02T10:22:35.332Z,98037.00
2023-05-02T10:25:04.410Z,98043.00
2023-05-02T10:27:32.566Z,98043.00
2023-05-02T10:30:02.482Z,98046.00
2023-05-02T10:32:29.962Z,98045.00
2023-05-02T10:35:05.614Z,98043.00
2023-05-02T10:37:36.660Z,98033.00
2023-05-02T10:40:06.289Z,98035.00
2023-05-02T10:42:39.426Z,98037.00
2023-05-02T10:45:31.505Z,98039.00
2023-05-02T10:48:22.841Z,98034.00
2023-05-02T10:50:58.229Z,98033.00
2023-05-02T10:53:45.412Z,98032.00
2023-05-02T10:56:21.307Z,98034.00
2023-05-02T10:58:50.986Z,98035.00
2023-05-02T11:01:31.198Z,98040.00
2023-05-02T11:04:11.884Z,98033.00
2023-05-02T11:07:05.502Z,98034.00
2023-05-02T11:09:33.648Z,98036.00
2023-05-02T11:12:02.334Z,98034.00
2023-05-02T11:14:35.257Z,98038.00
2023-05-02T11:17:05.502Z,98041.00
2023-05-02T11:19:39.026Z,98036.00
2023-05-02T11:22:19.253Z,98036.00
2023-05-02T11:24:48.705Z,98037.00
2023-05-02T11:27:31.336Z,98044.00
2023-05-02T11:30:09.921Z,98037.00
2023-05-02T11:32:47.743Z,98044.00
2023-05-02T11:35:27.150Z,98047.00
2023-05-02T11:38:01.754Z,98049.00
2023-05-02T11:40:30.522Z,98042.00
2023-05-02T11:42:59.514Z,98047.00
2023-05-02T11:45:38.043Z,98049.00
2023-05-02T11:48:07.217Z,98048.00
2023-05-02T11:50:49.697Z,98047.00
2023-05-02T11:53:22.680Z,98049.00
2023-05-02T11:55:55.023Z,98049.00
2023-05-02T11:58:24.753Z,98044.00
2023-05-02T12:00:53.544Z,98046.00
2023-05-02T12:03:32.272Z,98048.00
2023-05-02T12:06:18.839Z,98052.00
2023-05-02T12:08:46.857Z,98039.00
2023-05-02T12:11:18.450Z,98049.00
2023-05-02T12:13:48.369Z,98047.00
2023-05-02T12:16:17.063Z,98039.00
2023-05-02T12:18:44.739Z,98048.00
2023-05-02T12:21:12.163Z,98046.00
2023-05-02T12:23:42.431Z,98048.00
2023-05-02T12:26:30.936Z,98052.00
2023-05-02T12:29:02.957Z,98051.00
2023-05-02T12:31:32.447Z,98048.00
2023-05-02T12:34:00.601Z,98051.00
2023-05-02T12:36:29.013Z,98052.00
2023-05-02T12:39:01.636Z,98044.00
2023-05-02T12:41:43.782Z,98046.00
2023-05-02T12:44:10.989Z,98051.00
2023-05-02T12:46:38.787Z,98053.00
2023-05-02T12:49:09.413Z,98052.00
2023-05-02T12:51:37.244Z,98046.00
2023-05-02T12:54:05.369Z,98042.00
2023-05-02T12:56:43.849Z,98055.00
2023-05-02T12:59:30.817Z,98050.00
2023-05-02T13:01:58.818Z,98055.00
2023-05-02T13:04:42.350Z,98058.00
2023-05-02T13:07:09.512Z,98051.00
2023-05-02T13:09:37.183Z,98037.00
2023-05-02T13:12:04.840Z,98043.00
2023-05-02T13:14:32.387Z,98038.00
2023-05-02T13:16:59.714Z,98048.00
2023-05-02T13:19:31.026Z,98054.00
2023-05-02T13:21:58.141Z,98046.00
2023-05-02T13:24:25.808Z,98047.00
2023-05-02T13:26:52.892Z,98044.00
2023-05-02T13:29:19.984Z,98048.00
2023-05-02T13:31:47.134Z,98048.00
2023-05-02T13:34:14.233Z,98051.00
2023-05-02T13:36:46.372Z,98043.00
2023-05-02T13:39:16.881Z,98039.00
2023-05-02T13:41:44.000Z,98041.00
2023-05-02T13:44:13.518Z,98042.00
2023-05-02T13:46:40.689Z,98044.00
2023-05-02T13:49:07.778Z,98039.00
2023-05-02T13:51:35.082Z,98037.00
2023-05-02T13:54:03.012Z,98044.00
2023-05-02T13:56:30.125Z,98044.00
2023-05-02T13:58:57.357Z,98039.00
2023-05-02T14:01:26.815Z,98038.00
2023-05-02T14:03:54.205Z,98045.00
2023-05-02T14:06:21.663Z,98044.00
2023-05-02T14:08:48.911Z,98049.00
2023-05-02T14:11:16.071Z,98045.00
2023-05-02T14:13:43.422Z,98040.00
2023-05-02T14:16:11.061Z,98055.00
2023-05-02T14:18:38.268Z,98062.00
2023-05-02T14:21:06.030Z,98057.00
2023-05-02T14:23:33.348Z,98056.00
2023-05-02T14:26:01.692Z,98066.00
2023-05-02T14:28:29.042Z,98062.00
2023-05-02T14:30:56.138Z,98056.00
2023-05-02T14:33:23.410Z,98070.00
2023-05-02T14:35:50.529Z,98069.00
2023-05-02T14:38:17.633Z,98067.00
2023-05-02T14:40:44.788Z,98066.00
2023-05-02T14:43:14.157Z,98063.00
2023-05-02T14:45:41.614Z,98074.00
2023-05-02T14:48:08.928Z,98073.00
2023-05-02T14:50:37.824Z,98082.00
2023-05-02T14:53:04.882Z,98089.00
2023-05-02T14:55:37.115Z,98078.00
2023-05-02T14:58:05.043Z,98077.00
2023-05-02T15:00:35.330Z,98074.00
2023-05-02T15:03:04.520Z,98084.00
2023-05-02T15:05:34.467Z,98081.00
2023-05-02T15:08:01.557Z,98079.00
2023-05-02T15:10:28.804Z,98081.00
2023-05-02T15:12:55.894Z,98091.00
2023-05-02T15:15:25.327Z,98091.00
2023-05-02T15:17:53.184Z,98097.00
2023-05-02T15:20:20.573Z,98100.00
2023-05-02T15:22:47.744Z,98096.00
2023-05-02T15:25:14.926Z,98093.00
2023-05-02T15:27:42.702Z,98093.00
2023-05-02T15:30:10.440Z,98086.00
2023-05-02T15:32:37.531Z,98093.00
2023-05-02T15:35:08.765Z,98106.00
2023-05-02T15:37:36.293Z,98103.00
2023-05-02T15:40:04.425Z,98114.00
2023-05-02T15:42:32.005Z,98108.00
2023-05-02T15:44:59.276Z,98115.00
2023-05-02T15:47:26.362Z,98116.00
2023-05-02T15:49:55.113Z,98114.00
2023-05-02T15:52:22.324Z,98111.00
2023-05-02T15:54:51.669Z,98117.00
2023-05-02T15:57:19.943Z,98117.00
2023-05-02T15:59:47.267Z,98118.00
2023-05-02T16:02:14.363Z,98129.00
2023-05-02T16:04:43.153Z,98128.00
2023-05-02T16:07:11.173Z,98137.00
2023-05-02T16:09:39.802Z,98126.00
2023-05-02T16:12:07.359Z,98135.00
2023-05-02T16:14:34.965Z,98139.00
2023-05-02T16:17:02.197Z,98140.00
2023-05-02T16:19:29.271Z,98144.00
2023-05-02T16:21:56.424Z,98142.00
2023-05-02T16:24:23.661Z,98139.00
2023-05-02T16:26:50.800Z,98140.00
2023-05-02T16:29:17.821Z,98142.00
2023-05-02T16:31:45.107Z,98149.00
2023-05-02T16:34:12.365Z,98146.00
2023-05-02T16:36:39.462Z,98140.00
2023-05-02T16:39:06.666Z,98149.00
2023-05-02T16:41:36.227Z,98155.00
2023-05-02T16:44:03.330Z,98146.00
2023-05-02T16:46:32.004Z,98152.00
2023-05-02T16:48:59.340Z,98149.00
2023-05-02T16:51:26.628Z,98147.00
2023-05-02T16:53:53.830Z,98155.00
2023-05-02T16:56:21.532Z,98144.00
2023-05-02T16:58:49.058Z,98151.00
2023-05-02T17:01:16.216Z,98155.00
2023-05-02T17:03:43.360Z,98158.00
2023-05-02T17:06:10.587Z,98158.00
2023-05-02T17:08:38.184Z,98160.00
2023-05-02T17:11:05.687Z,98162.00
2023-05-02T17:13:32.826Z,98172.00
2023-05-02T17:16:01.232Z,98182.00
2023-05-02T17:18:28.487Z,98179.00
2023-05-02T17:20:56.302Z,98176.00
2023-05-02T17:23:24.027Z,98177.00
2023-05-02T17:25:51.681Z,98192.00
2023-05-02T17:28:20.124Z,98189.00
2023-05-02T17:30:48.572Z,98189.00
2023-05-02T17:33:15.996Z,98196.00
2023-05-02T17:35:43.641Z,98205.00
2023-05-02T17:38:11.081Z,98209.00
2023-05-02T17:40:38.410Z,98207.00
2023-05-02T17:43:05.835Z,98206.00
2023-05-02T17:45:32.970Z,98202.00
2023-05-02T17:48:01.991Z,98208.00
2023-05-02T17:50:29.877Z,98216.00
2023-05-02T17:52:57.647Z,98229.00
2023-05-02T17:55:24.694Z,98231.00
2023-05-02T17:57:51.834Z,98241.00
2023-05-02T18:00:19.220Z,98237.00
2023-05-02T18:02:46.325Z,98254.00
2023-05-02T18:05:13.707Z,98257.00
2023-05-02T18:07:40.890Z,98253.00
2023-05-02T18:10:08.677Z,98258.00
2023-05-02T18:12:36.417Z,98258.00
2023-05-02T18:15:05.279Z,98261.00
2023-05-02T18:17:32.768Z,98260.00
2023-05-02T18:20:00.392Z,98268.00
2023-05-02T18:22:28.011Z,98280.00
2023-05-02T18:24:56.202Z,98270.00
2023-05-02T18:27:25.601Z,98283.00
2023-05-02T18:29:52.709Z,98280.00
2023-05-02T18:32:19.951Z,98282.00
2023-05-02T18:34:47.016Z,98289.00
2023-05-02T18:37:14.152Z,98280.00
2023-05-02T18:39:41.328Z,98286.00
2023-05-02T18:42:08.511Z,98285.00
2023-05-02T18:44:35.646Z,98289.00
2023-05-02T18:47:02.829Z,98300.00
2023-05-02T18:49:30.092Z,98296.00
2023-05-02T18:51:57.126Z,98305.00
2023-05-02T18:54:24.437Z,98315.00
2023-05-02T18:56:51.676Z,98316.00
2023-05-02T18:59:19.045Z,98321.00
2023-05-02T19:01:48.517Z,98308.00
2023-05-02T19:04:15.781Z,98305.00
2023-05-02T19:06:43.322Z,98307.00
2023-05-02T19:09:12.477Z,98311.00
2023-05-02T19:11:40.468Z,98305.00
2023-05-02T19:14:08.007Z,98310.00
2023-05-02T19:16:36.208Z,98307.00
2023-05-02T19:19:03.726Z,98309.00
2023-05-02T19:21:31.584Z,98305.00
2023-05-02T19:23:58.674Z,98305.00
2023-05-02T19:26:25.971Z,98310.00
2023-05-02T19:28:53.145Z,98314.00
2023-05-02T19:31:21.155Z,98321.00
2023-05-02T19:33:52.036Z,98323.00
2023-05-02T19:36:21.952Z,98315.00
2023-05-02T19:38:51.243Z,98317.00
2023-05-02T19:41:18.616Z,98331.00
2023-05-02T19:43:45.925Z,98328.00
2023-05-02T19:46:14.952Z,98331.00
2023-05-02T19:48:42.151Z,98330.00
2023-05-02T19:51:09.303Z,98322.00
2023-05-02T19:53:38.403Z,98336.00
2023-05-02T19:56:08.890Z,98333.00
2023-05-02T19:58:36.066Z,98331.00
2023-05-02T20:01:03.575Z,98323.00
2023-05-02T20:03:30.928Z,98325.00
2023-05-02T20:05:58.589Z,98329.00
2023-05-02T20:08:28.037Z,98324.00
2023-05-02T20:10:58.795Z,98326.00
2023-05-02T20:13:25.946Z,98317.00
2023-05-02T20:15:54.279Z,98318.00
2023-05-02T20:18:21.373Z,98317.00
2023-05-02T20:20:48.484Z,98309.00
2023-05-02T20:23:16.166Z,98309.00
2023-05-02T20:25:43.922Z,98313.00
2023-05-02T20:28:11.091Z,98311.00
2023-05-02T20:30:39.868Z,98319.00
2023-05-02T20:33:15.563Z,98316.00
2023-05-02T20:35:43.907Z,98318.00
2023-05-02T20:38:11.295Z,98320.00
2023-05-02T20:40:40.697Z,98311.00
2023-05-02T20:43:08.888Z,98307.00
2023-05-02T20:45:36.127Z,98292.00
2023-05-02T20:48:03.251Z,98297.00
2023-05-02T20:50:30.777Z,98298.00
2023-05-02T20:52:58.519Z,98300.00
2023-05-02T20:55:26.102Z,98295.00
2023-05-02T20:57:53.764Z,98299.00
2023-05-02T21:00:24.040Z,98304.00
2023-05-02T21:02:51.290Z,98297.00
2023-05-02T21:05:18.602Z,98302.00
2023-05-02T21:07:45.761Z,98299.00
2023-05-02T21:10:13.110Z,98299.00
2023-05-02T21:12:40.196Z,98313.00
2023-05-02T21:15:08.638Z,98310.00
2023-05-02T21:17:35.866Z,98310.00
2023-05-02T21:20:03.245Z,98306.00
2023-05-02T21:22:30.507Z,98311.00
2023-05-02T21:24:57.610Z,98309.00
2023-05-02T21:27:24.992Z,98316.00
2023-05-02T21:29:52.178Z,98308.00
2023-05-02T21:32:19.324Z,98304.00
2023-05-02T21:34:46.464Z,98307.00
2023-05-02T21:37:13.546Z,98305.00
2023-05-02T21:39:40.703Z,98313.00
2023-05-02T21:42:07.755Z,98300.00
2023-05-02T21:44:34.838Z,98312.00
2023-05-02T21:47:01.969Z,98313.00
2023-05-02T21:49:31.839Z,98320.00
2023-05-02T21:51:58.999Z,98321.00
2023-05-02T21:54:26.398Z,98325.00
2023-05-02T21:56:54.430Z,98323.00
2023-05-02T21:59:21.472Z,98330.00
2023-05-02T22:01:48.692Z,98334.00
2023-05-02T22:04:16.398Z,98335.00
2023-05-02T22:06:48.911Z,98345.00
2023-05-02T22:09:16.028Z,98344.00
2023-05-02T22:11:43.439Z,98347.00
2023-05-02T22:14:13.544Z,98336.00
2023-05-02T22:16:40.600Z,98333.00
2023-05-02T22:19:08.139Z,98337.00
2023-05-02T22:21:35.185Z,98335.00
2023-05-02T22:24:02.464Z,98335.00
2023-05-02T22:26:29.542Z,98347.00
2023-05-02T22:28:57.036Z,98340.00
2023-05-02T22:31:24.292Z,98343.00
2023-05-02T22:33:51.413Z,98348.00
2023-05-02T22:36:18.668Z,98347.00
2023-05-02T22:38:45.772Z,98344.00
2023-05-02T22:41:12.858Z,98342.00
2023-05-02T22:43:39.924Z,98340.00
2023-05-02T22:46:07.178Z,98340.00
2023-05-02T22:48:34.266Z,98346.00
2023-05-02T22:51:01.346Z,98344.00
2023-05-02T22:53:28.396Z,98343.00
2023-05-02T22:55:56.110Z,98347.00
2023-05-02T22:58:23.213Z,98348.00
2023-05-02T23:00:50.629Z,98348.00
2023-05-02T23:03:17.831Z,98350.00
2023-05-02T23:05:45.083Z,98349.00
2023-05-02T23:08:12.182Z,98354.00
2023-05-02T23:10:39.383Z,98353.00
2023-05-02T23:13:06.389Z,98353.00
2023-05-02T23:15:33.515Z,98361.00
2023-05-02T23:18:00.696Z,98356.00
2023-05-02T23:20:27.880Z,98358.00
2023-05-02T23:22:55.024Z,98354.00
2023-05-02T23:25:26.758Z,98360.00
2023-05-02T23:43:30.136Z,98337.00
2023-05-02T23:45:57.470Z,98335.00
2023-05-02T23:48:24.955Z,98333.00
2023-05-02T23:50:52.399Z,98338.00
2023-05-02T23:53:19.549Z,98340.00
2023-05-02T23:55:46.924Z,98336.00
2023-05-02T23:58:14.022Z,98340.00
